Time;durP1;ratioP1;P1;durP2;ratioP2;P2;SDS_P1;SDS_P2;PMS_P1;PMS_P2;Temp;Humidity;BMP_temperature;BMP_pressure;BME280_temperature;BME280_humidity;BME280_pressure;Samples;Min_cycle;Max_cycle;Signal;HPM_P1;HPM_P2
2023/12/13 00:01:51;;;;;;;3.13;1.10;;;;;;;7.71;100.00;95439.19;5020405;28;20053;-70
2023/12/13 00:04:16;;;;;;;4.10;1.63;;;;;;;7.69;100.00;95446.94;5014716;28;20037;-70
2023/12/13 00:06:41;;;;;;;2.83;1.38;;;;;;;7.69;100.00;95445.00;5019762;28;20064;-70
2023/12/13 00:09:10;;;;;;;2.80;1.10;;;;;;;7.63;100.00;95447.31;5013855;28;20112;-69
2023/12/13 00:11:36;;;;;;;3.50;1.55;;;;;;;7.68;100.00;95445.38;5020130;28;20547;-69
2023/12/13 00:14:01;;;;;;;3.70;1.00;;;;;;;7.66;100.00;95424.72;5019680;28;20045;-70
2023/12/13 00:16:26;;;;;;;3.35;1.17;;;;;;;7.68;100.00;95420.88;5011752;28;20046;-70
2023/12/13 00:18:52;;;;;;;5.68;2.33;;;;;;;7.70;100.00;95413.84;5008547;28;20080;-69
2023/12/13 00:21:18;;;;;;;3.00;1.30;;;;;;;7.67;100.00;95406.47;5004317;28;20046;-71
2023/12/13 00:23:45;;;;;;;2.88;0.90;;;;;;;7.65;100.00;95406.84;5013683;28;20049;-70
2023/12/13 00:26:18;;;;;;;1.80;1.10;;;;;;;7.60;100.00;95415.34;4999092;28;20045;-71
2023/12/13 00:28:44;;;;;;;2.75;1.27;;;;;;;7.60;100.00;95411.88;5004053;28;20432;-71
2023/12/13 00:31:10;;;;;;;2.40;1.17;;;;;;;7.58;100.00;95400.53;5012655;28;20049;-71
2023/12/13 00:33:36;;;;;;;1.77;0.90;;;;;;;7.59;100.00;95400.16;5020370;28;20049;-71
2023/12/13 00:36:03;;;;;;;5.15;0.80;;;;;;;7.60;100.00;95403.69;5001944;28;20049;-70
2023/12/13 00:38:28;;;;;;;1.13;0.60;;;;;;;7.62;100.00;95404.84;5000807;28;20046;-70
2023/12/13 00:40:53;;;;;;;1.83;0.60;;;;;;;7.71;100.00;95407.25;5001173;28;20484;-71
2023/12/13 00:43:19;;;;;;;1.38;0.45;;;;;;;7.91;100.00;95398.81;4997603;28;20072;-70
2023/12/13 00:45:44;;;;;;;1.67;0.60;;;;;;;7.90;100.00;95399.97;5007329;28;20092;-71
2023/12/13 00:48:09;;;;;;;1.42;0.50;;;;;;;7.94;100.00;95387.94;4999821;28;20511;-70
2023/12/13 00:50:35;;;;;;;4.25;1.42;;;;;;;7.83;100.00;95393.31;5007009;28;20656;-71
2023/12/13 00:53:00;;;;;;;1.40;0.60;;;;;;;7.78;100.00;95390.94;5006558;28;20049;-70
2023/12/13 00:55:26;;;;;;;4.75;1.15;;;;;;;7.75;100.00;95397.16;4995007;28;20670;-70
2023/12/13 00:57:52;;;;;;;2.58;0.80;;;;;;;7.66;100.00;95383.84;5008054;28;20488;-71
2023/12/13 01:00:17;;;;;;;1.92;0.70;;;;;;;7.71;100.00;95399.09;4998777;28;20053;-70
2023/12/13 01:02:43;;;;;;;4.93;1.40;;;;;;;7.70;100.00;95400.22;5006820;28;20068;-71
2023/12/13 01:05:09;;;;;;;2.33;1.45;;;;;;;7.87;100.00;95395.25;5002557;28;20527;-71
2023/12/13 01:07:34;;;;;;;1.95;0.90;;;;;;;7.80;100.00;95387.84;5007772;28;20081;-71
2023/12/13 01:09:59;;;;;;;1.23;0.80;;;;;;;7.75;100.00;95383.53;5024184;28;20489;-70
2023/12/13 01:12:25;;;;;;;1.02;0.75;;;;;;;7.82;100.00;95391.75;5017324;28;20069;-70
2023/12/13 01:14:50;;;;;;;6.10;2.15;;;;;;;7.80;100.00;95396.03;5007498;28;20077;-70
2023/12/13 01:17:16;;;;;;;1.95;0.70;;;;;;;7.95;100.00;95405.84;5007638;28;20747;-71
2023/12/13 01:19:41;;;;;;;1.08;0.60;;;;;;;7.87;100.00;95400.72;4999061;28;20053;-71
2023/12/13 01:22:08;;;;;;;1.80;0.60;;;;;;;7.91;100.00;95401.53;5002017;28;20416;-70
2023/12/13 01:24:33;;;;;;;0.88;0.60;;;;;;;7.81;100.00;95394.84;5005613;28;20152;-71
2023/12/13 01:26:59;;;;;;;0.70;0.50;;;;;;;7.82;100.00;95390.97;4994065;28;20137;-74
2023/12/13 01:29:24;;;;;;;0.63;0.47;;;;;;;7.88;100.00;95386.72;5006755;28;20058;-72
2023/12/13 01:31:50;;;;;;;2.13;0.70;;;;;;;7.97;100.00;95378.97;5003360;28;20049;-71
2023/12/13 01:34:15;;;;;;;0.60;0.50;;;;;;;7.96;100.00;95384.78;5000870;28;20100;-71
2023/12/13 01:36:41;;;;;;;0.80;0.50;;;;;;;7.96;100.00;95392.97;4996920;28;20041;-72
2023/12/13 01:39:07;;;;;;;0.85;0.57;;;;;;;7.94;100.00;95393.38;5014065;28;20045;-72
2023/12/13 01:41:33;;;;;;;2.35;0.70;;;;;;;7.99;100.00;95390.28;5018846;28;20056;-70
2023/12/13 01:43:59;;;;;;;3.50;0.80;;;;;;;7.96;100.00;95387.53;5019709;28;20049;-71
2023/12/13 01:46:24;;;;;;;0.63;0.60;;;;;;;7.96;100.00;95398.44;4981501;28;20096;-71
2023/12/13 01:48:50;;;;;;;1.38;0.80;;;;;;;7.99;100.00;95392.22;5038160;28;20060;-74
2023/12/13 01:51:16;;;;;;;1.05;0.80;;;;;;;7.87;100.00;95387.88;5002615;28;20046;-70
2023/12/13 01:53:42;;;;;;;2.95;0.70;;;;;;;7.80;100.00;95383.16;5024200;28;20041;-70
2023/12/13 01:56:10;;;;;;;1.52;0.77;;;;;;;7.94;100.00;95379.75;5017203;28;20042;-71
2023/12/13 01:58:37;;;;;;;2.33;0.80;;;;;;;7.98;100.00;95383.28;5023058;28;20059;-71
2023/12/13 02:01:03;;;;;;;3.17;0.77;;;;;;;8.00;100.00;95380.16;4994217;28;20099;-70
2023/12/13 02:03:30;;;;;;;1.05;0.80;;;;;;;7.77;100.00;95374.97;5020871;28;20048;-71
2023/12/13 02:05:56;;;;;;;1.45;0.90;;;;;;;7.77;100.00;95377.69;5021717;28;20049;-70
2023/12/13 02:08:22;;;;;;;2.70;1.00;;;;;;;7.74;100.00;95373.00;5016190;28;20504;-71
2023/12/13 02:10:49;;;;;;;2.58;0.80;;;;;;;7.69;100.00;95374.16;5022632;28;20045;-71
2023/12/13 02:13:15;;;;;;;0.98;0.82;;;;;;;7.62;100.00;95374.09;5019338;28;20056;-71
2023/12/13 02:15:43;;;;;;;1.70;0.80;;;;;;;7.64;100.00;95369.84;5019190;28;20053;-70
2023/12/13 02:18:09;;;;;;;1.00;0.90;;;;;;;7.60;100.00;95360.88;5019621;28;20518;-71
2023/12/13 02:20:35;;;;;;;1.35;0.77;;;;;;;7.58;100.00;95349.56;5024810;28;20108;-72
2023/12/13 02:23:00;;;;;;;1.42;0.75;;;;;;;7.69;100.00;95349.63;5004587;28;20546;-71
2023/12/13 02:25:32;;;;;;;1.08;0.77;;;;;;;7.75;100.00;95356.28;5033657;28;20132;-72
2023/12/13 02:27:57;;;;;;;0.98;0.65;;;;;;;7.85;100.00;95349.34;5021519;28;20045;-71
2023/12/13 02:30:23;;;;;;;3.22;0.75;;;;;;;7.94;100.00;95344.31;5008692;28;20053;-72
2023/12/13 02:32:49;;;;;;;0.60;0.60;;;;;;;7.87;100.00;95332.56;5019810;28;20052;-71
2023/12/13 02:35:16;;;;;;;0.70;0.60;;;;;;;7.86;100.00;95329.06;5017192;28;20041;-71
2023/12/13 02:37:49;;;;;;;4.75;1.63;;;;;;;7.79;100.00;95331.75;5021865;28;20054;-72
2023/12/13 02:40:17;;;;;;;2.78;1.23;;;;;;;7.69;100.00;95325.09;5018985;28;20476;-72
2023/12/13 02:42:42;;;;;;;1.13;0.60;;;;;;;7.68;100.00;95328.97;5015589;28;20085;-70
2023/12/13 02:45:11;;;;;;;1.02;0.80;;;;;;;7.62;100.00;95327.78;5028221;28;20471;-70
2023/12/13 02:47:38;;;;;;;1.77;0.65;;;;;;;7.52;100.00;95329.28;5015969;28;20566;-70
2023/12/13 02:50:06;;;;;;;0.75;0.60;;;;;;;7.64;100.00;95328.97;5017824;28;20091;-69
2023/12/13 02:52:31;;;;;;;1.77;0.60;;;;;;;7.62;100.00;95328.56;5019621;28;20107;-70
2023/12/13 02:54:57;;;;;;;0.80;0.65;;;;;;;7.52;100.00;95323.06;5022297;28;20053;-72
2023/12/13 02:57:22;;;;;;;1.20;0.70;;;;;;;7.47;100.00;95308.63;5009425;28;20573;-72
2023/12/13 02:59:47;;;;;;;2.00;0.85;;;;;;;7.41;100.00;95299.25;5022318;28;20049;-71
2023/12/13 03:02:13;;;;;;;0.90;0.70;;;;;;;7.38;100.00;95300.03;5017019;28;20523;-71
2023/12/13 03:04:38;;;;;;;2.10;0.80;;;;;;;7.40;100.00;95302.34;5017189;28;20061;-71
2023/12/13 03:07:04;;;;;;;3.05;0.60;;;;;;;7.39;100.00;95307.00;5021481;28;20041;-70
2023/12/13 03:09:30;;;;;;;1.65;0.70;;;;;;;7.49;100.00;95297.34;5008921;28;20061;-72
2023/12/13 03:11:55;;;;;;;1.90;0.50;;;;;;;7.47;100.00;95316.81;5016355;28;20045;-71
2023/12/13 03:14:20;;;;;;;1.23;0.65;;;;;;;7.51;100.00;95288.78;5000568;28;20056;-72
2023/12/13 03:16:46;;;;;;;1.08;0.60;;;;;;;7.45;100.00;95289.16;5015267;28;20045;-71
2023/12/13 03:19:11;;;;;;;0.73;0.50;;;;;;;7.60;100.00;95284.56;5013952;28;20054;-72
2023/12/13 03:21:37;;;;;;;0.40;0.40;;;;;;;7.56;100.00;95269.34;5010027;28;20126;-72
2023/12/13 03:24:02;;;;;;;1.15;0.60;;;;;;;7.60;100.00;95256.53;5000819;28;20041;-70
2023/12/13 03:26:28;;;;;;;2.85;0.70;;;;;;;7.67;100.00;95251.13;5017593;28;20042;-71
2023/12/13 03:28:53;;;;;;;0.50;0.50;;;;;;;7.61;100.00;95249.91;5022556;28;20080;-72
2023/12/13 03:31:19;;;;;;;0.93;0.50;;;;;;;7.69;100.00;95248.78;4992344;28;20061;-72
2023/12/13 03:33:44;;;;;;;1.02;0.50;;;;;;;7.64;100.00;95246.44;5009248;28;20041;-72
2023/12/13 03:36:14;;;;;;;0.65;0.52;;;;;;;7.63;100.00;95259.28;5022617;28;20057;-72
2023/12/13 03:38:39;;;;;;;1.08;0.70;;;;;;;7.45;100.00;95261.94;5015358;28;20514;-72
2023/12/13 03:41:05;;;;;;;3.25;0.75;;;;;;;7.39;100.00;95262.66;5000340;28;20046;-71
2023/12/13 03:43:30;;;;;;;1.60;0.63;;;;;;;7.32;100.00;95265.34;5014326;28;20052;-72
2023/12/13 03:45:55;;;;;;;1.15;0.60;;;;;;;7.24;100.00;95269.97;5013534;28;20056;-72
2023/12/13 03:48:21;;;;;;;1.35;0.70;;;;;;;7.14;100.00;95276.13;5004906;28;20279;-71
2023/12/13 03:50:46;;;;;;;0.93;0.50;;;;;;;7.37;100.00;95270.44;5011434;28;20034;-71
2023/12/13 03:53:11;;;;;;;3.55;1.17;;;;;;;7.44;100.00;95270.47;5005450;28;20045;-73
2023/12/13 03:55:37;;;;;;;4.88;1.10;;;;;;;7.36;100.00;95264.19;5005802;28;20391;-73
2023/12/13 03:58:02;;;;;;;1.35;0.57;;;;;;;7.20;100.00;95264.50;5011556;28;20038;-68
2023/12/13 04:00:27;;;;;;;1.73;0.70;;;;;;;7.02;100.00;95263.59;5021658;28;20041;-72
2023/12/13 04:02:54;;;;;;;1.48;0.70;;;;;;;6.85;100.00;95254.16;5023866;28;20133;-72
2023/12/13 04:05:19;;;;;;;0.73;0.50;;;;;;;6.72;100.00;95250.94;5014966;28;20176;-73
2023/12/13 04:07:44;;;;;;;2.70;0.90;;;;;;;6.65;100.00;95256.31;5000102;28;20041;-73
2023/12/13 04:10:10;;;;;;;2.72;0.80;;;;;;;6.66;100.00;95247.78;5004839;28;20061;-74
2023/12/13 04:12:35;;;;;;;2.55;0.70;;;;;;;6.68;100.00;95250.91;5020069;28;20388;-73
2023/12/13 04:15:01;;;;;;;0.80;0.70;;;;;;;6.67;100.00;95251.28;5021955;28;20099;-72
2023/12/13 04:17:26;;;;;;;0.57;0.50;;;;;;;6.67;100.00;95245.84;5030312;28;20033;-72
2023/12/13 04:19:52;;;;;;;0.88;0.70;;;;;;;6.62;100.00;95251.63;5002729;28;20125;-71
2023/12/13 04:22:17;;;;;;;2.72;0.70;;;;;;;6.63;100.00;95262.13;5012693;28;20646;-72
2023/12/13 04:24:42;;;;;;;1.98;0.85;;;;;;;6.66;100.00;95268.75;5006834;28;20041;-71
2023/12/13 04:27:09;;;;;;;3.78;1.27;;;;;;;6.65;100.00;95256.31;5013836;28;20534;-72
2023/12/13 04:29:34;;;;;;;0.77;0.65;;;;;;;6.60;100.00;95241.13;5004471;28;20052;-70
2023/12/13 04:32:00;;;;;;;1.55;0.80;;;;;;;6.57;100.00;95232.94;5018995;28;20447;-71
2023/12/13 04:34:25;;;;;;;1.08;0.73;;;;;;;6.48;100.00;95244.91;5013049;28;20116;-72
2023/12/13 04:36:51;;;;;;;1.13;0.70;;;;;;;6.38;100.00;95244.81;5010023;28;20045;-71
2023/12/13 04:39:16;;;;;;;0.68;0.60;;;;;;;6.38;100.00;95242.88;5006161;28;20045;-71
2023/12/13 04:41:44;;;;;;;5.25;0.80;;;;;;;6.37;100.00;95235.84;5012552;28;20057;-72
2023/12/13 04:44:12;;;;;;;3.03;0.80;;;;;;;6.36;100.00;95244.41;4997698;28;20041;-71
2023/12/13 04:46:38;;;;;;;1.45;0.80;;;;;;;6.40;100.00;95253.38;5015297;28;20103;-71
2023/12/13 04:49:04;;;;;;;4.05;2.20;;;;;;;6.48;100.00;95263.16;5016945;28;20493;-69
2023/12/13 04:51:30;;;;;;;9.05;4.07;;;;;;;6.56;100.00;95255.84;5009097;28;20539;-70
2023/12/13 04:53:56;;;;;;;5.00;1.90;;;;;;;6.67;100.00;95249.34;5027243;28;20040;-71
2023/12/13 04:56:21;;;;;;;5.85;2.35;;;;;;;6.63;100.00;95236.88;5015058;28;20864;-70
2023/12/13 04:58:46;;;;;;;1.88;1.20;;;;;;;6.54;100.00;95234.47;5017060;28;20033;-71
2023/12/13 05:01:12;;;;;;;2.05;1.10;;;;;;;6.45;100.00;95232.06;5011937;28;20034;-71
2023/12/13 05:03:37;;;;;;;4.32;1.40;;;;;;;6.35;100.00;95223.81;5010389;28;20099;-71
2023/12/13 05:06:03;;;;;;;2.08;1.15;;;;;;;6.25;100.00;95226.06;5017886;28;20044;-70
2023/12/13 05:08:30;;;;;;;1.70;1.13;;;;;;;6.23;100.00;95224.84;5012446;28;20053;-71
2023/12/13 05:10:56;;;;;;;2.35;1.25;;;;;;;6.27;100.00;95222.97;5003550;28;20052;-70
2023/12/13 05:13:22;;;;;;;4.45;1.30;;;;;;;6.32;100.00;95220.69;5018655;28;20278;-70
2023/12/13 05:15:48;;;;;;;5.75;1.25;;;;;;;6.50;100.00;95223.56;5021290;28;20033;-71
2023/12/13 05:18:13;;;;;;;1.50;1.05;;;;;;;6.53;100.00;95226.69;5039465;28;20060;-71
2023/12/13 05:20:39;;;;;;;2.33;1.02;;;;;;;6.50;100.00;95217.34;5034731;28;20045;-72
2023/12/13 05:23:04;;;;;;;2.65;0.88;;;;;;;6.47;100.00;95218.88;5020536;28;20033;-70
2023/12/13 05:25:30;;;;;;;7.03;1.00;;;;;;;6.46;100.00;95211.88;5021652;28;20033;-71
2023/12/13 05:27:55;;;;;;;3.60;0.85;;;;;;;6.54;100.00;95214.66;5018173;28;20496;-71
2023/12/13 05:30:23;;;;;;;3.00;0.70;;;;;;;6.71;100.00;95214.00;5015871;28;20459;-71
2023/12/13 05:32:51;;;;;;;2.28;0.80;;;;;;;6.61;100.00;95204.59;5020413;28;20080;-71
2023/12/13 05:35:17;;;;;;;1.42;0.80;;;;;;;6.53;100.00;95202.97;5008127;28;20107;-70
2023/12/13 05:37:42;;;;;;;1.27;0.75;;;;;;;6.51;100.00;95202.56;5020598;28;20045;-70
2023/12/13 05:40:08;;;;;;;0.80;0.65;;;;;;;6.44;100.00;95206.00;5007884;28;20044;-72
2023/12/13 05:42:34;;;;;;;2.00;0.90;;;;;;;6.36;100.00;95211.78;5021081;28;20043;-73
2023/12/13 05:44:59;;;;;;;1.30;0.90;;;;;;;6.32;100.00;95209.03;5018327;28;20129;-72
2023/12/13 05:47:25;;;;;;;5.15;1.35;;;;;;;6.32;100.00;95212.53;5004774;28;20125;-73
2023/12/13 05:49:51;;;;;;;2.80;0.80;;;;;;;6.50;100.00;95199.06;5015432;28;20540;-72
2023/12/13 05:52:18;;;;;;;4.13;1.10;;;;;;;6.53;100.00;95213.84;5019886;28;20110;-72
2023/12/13 05:54:43;;;;;;;1.70;0.85;;;;;;;6.68;100.00;95201.94;5014288;28;20504;-72
2023/12/13 05:57:09;;;;;;;6.35;1.65;;;;;;;6.96;100.00;95200.56;5017968;28;20040;-71
2023/12/13 05:59:34;;;;;;;1.05;0.60;;;;;;;7.24;100.00;95207.34;5018382;28;20678;-71
2023/12/13 06:01:59;;;;;;;2.90;0.85;;;;;;;7.19;100.00;95199.53;5001018;28;20034;-72
2023/12/13 06:04:25;;;;;;;2.25;0.60;;;;;;;7.09;100.00;95195.56;5014924;28;20095;-71
2023/12/13 06:06:51;;;;;;;1.63;0.73;;;;;;;6.97;100.00;95195.88;5017372;28;20041;-71
2023/12/13 06:09:16;;;;;;;1.55;0.70;;;;;;;6.89;100.00;95192.34;5012654;28;20171;-71
2023/12/13 06:11:42;;;;;;;1.98;0.80;;;;;;;6.89;100.00;95195.06;5014370;28;20276;-71
2023/12/13 06:14:07;;;;;;;0.93;0.68;;;;;;;6.98;100.00;95194.72;5005638;28;20129;-71
2023/12/13 06:16:33;;;;;;;3.72;0.80;;;;;;;6.95;100.00;95179.16;5026484;28;20485;-70
2023/12/13 06:18:58;;;;;;;1.20;0.82;;;;;;;6.95;100.00;95181.88;5013147;28;20042;-71
2023/12/13 06:21:24;;;;;;;1.55;0.60;;;;;;;6.96;100.00;95180.72;5011341;28;20833;-71
2023/12/13 06:23:49;;;;;;;0.68;0.60;;;;;;;6.95;100.00;95177.22;5030025;28;20407;-71
2023/12/13 06:26:14;;;;;;;1.23;0.60;;;;;;;7.01;100.00;95172.97;5016216;28;20064;-71
2023/12/13 06:28:40;;;;;;;1.10;0.75;;;;;;;7.06;100.00;95167.19;5014473;28;20037;-71
2023/12/13 06:31:05;;;;;;;2.05;0.70;;;;;;;7.06;100.00;95163.69;5017681;28;20753;-71
2023/12/13 06:33:31;;;;;;;2.95;0.80;;;;;;;7.08;100.00;95162.13;4997096;28;20751;-71
2023/12/13 06:35:56;;;;;;;5.25;1.38;;;;;;;7.14;100.00;95153.59;5023410;28;20065;-72
2023/12/13 06:38:22;;;;;;;2.45;0.85;;;;;;;7.08;100.00;95155.91;5007189;28;20990;-72
2023/12/13 06:40:47;;;;;;;1.63;0.88;;;;;;;7.01;100.00;95156.66;5008836;28;20183;-71
2023/12/13 06:43:13;;;;;;;2.38;0.90;;;;;;;6.93;100.00;95157.75;5010430;28;20042;-71
2023/12/13 06:45:38;;;;;;;6.30;1.50;;;;;;;6.83;100.00;95167.44;5038637;28;20376;-71
2023/12/13 06:48:06;;;;;;;3.55;0.80;;;;;;;6.73;100.00;95173.56;5001224;28;20041;-70
2023/12/13 06:50:32;;;;;;;2.05;1.13;;;;;;;6.60;100.00;95175.06;5020317;28;20137;-70
2023/12/13 06:52:57;;;;;;;1.48;0.70;;;;;;;6.55;100.00;95164.53;5020955;28;20041;-70
2023/12/13 06:55:22;;;;;;;1.45;0.77;;;;;;;6.45;100.00;95160.56;5033071;28;20107;-70
2023/12/13 06:57:48;;;;;;;2.03;1.00;;;;;;;6.49;100.00;95161.38;5021757;28;20706;-70
2023/12/13 07:00:14;;;;;;;1.55;0.75;;;;;;;6.41;100.00;95157.81;5016009;28;20042;-71
2023/12/13 07:02:40;;;;;;;1.88;0.88;;;;;;;6.38;100.00;95160.53;5016825;28;20052;-70
2023/12/13 07:05:10;;;;;;;1.80;0.75;;;;;;;6.31;100.00;95153.84;5028786;28;20135;-70
2023/12/13 07:07:35;;;;;;;2.13;0.80;;;;;;;6.28;100.00;95160.06;5022673;28;20064;-73
2023/12/13 07:10:01;;;;;;;1.63;1.00;;;;;;;6.34;100.00;95159.69;5024302;28;20038;-66
2023/12/13 07:12:28;;;;;;;1.83;1.00;;;;;;;6.40;100.00;95164.41;5015626;28;20046;-67
2023/12/13 07:14:56;;;;;;;2.63;1.38;;;;;;;6.46;100.00;95168.34;5014218;28;20050;-67
2023/12/13 07:17:22;;;;;;;4.50;1.50;;;;;;;6.66;100.00;95173.53;5004672;28;20959;-67
2023/12/13 07:19:47;;;;;;;4.47;1.48;;;;;;;6.74;100.00;95169.72;5016028;28;20033;-69
2023/12/13 07:22:13;;;;;;;3.38;1.40;;;;;;;6.77;100.00;95168.16;5017588;28;20041;-68
2023/12/13 07:24:38;;;;;;;3.08;1.60;;;;;;;6.73;100.00;95168.13;5013097;28;20040;-71
2023/12/13 07:27:04;;;;;;;4.25;1.80;;;;;;;6.65;100.00;95177.44;5022360;28;20518;-70
2023/12/13 07:29:32;;;;;;;5.43;2.10;;;;;;;6.65;100.00;95178.19;5049098;28;20049;-72
2023/12/13 07:31:58;;;;;;;13.55;4.50;;;;;;;6.75;100.00;95170.47;5033840;28;20046;-72
2023/12/13 07:34:23;;;;;;;10.65;4.03;;;;;;;6.65;100.00;95153.72;5018744;28;20560;-73
2023/12/13 07:36:49;;;;;;;7.15;3.17;;;;;;;6.59;100.00;95155.25;5016833;28;20041;-74
2023/12/13 07:39:18;;;;;;;8.63;3.92;;;;;;;6.80;100.00;95160.00;5011746;28;20107;-75
2023/12/13 07:41:43;;;;;;;9.13;3.53;;;;;;;6.80;100.00;95151.84;5013515;28;20142;-72
2023/12/13 07:44:09;;;;;;;8.48;3.53;;;;;;;6.83;100.00;95153.06;4993461;28;20294;-71
2023/12/13 07:46:34;;;;;;;5.75;2.95;;;;;;;6.71;100.00;95140.53;5001623;28;20511;-72
2023/12/13 07:49:03;;;;;;;5.80;2.33;;;;;;;6.61;100.00;95139.31;4985587;28;20060;-72
2023/12/13 07:51:32;;;;;;;5.60;2.75;;;;;;;6.64;100.00;95141.25;5009820;28;20037;-73
2023/12/13 07:53:59;;;;;;;29.75;12.25;;;;;;;6.76;100.00;95140.19;5011501;28;20492;-73
2023/12/13 07:56:25;;;;;;;41.72;23.58;;;;;;;6.75;100.00;95133.16;5000005;28;20048;-72
2023/12/13 07:58:51;;;;;;;32.40;17.88;;;;;;;6.64;100.00;95126.88;5002634;28;20120;-73
2023/12/13 08:01:16;;;;;;;23.90;12.38;;;;;;;6.56;100.00;95133.44;5013900;28;20790;-72
2023/12/13 08:03:43;;;;;;;11.60;7.00;;;;;;;6.56;100.00;95139.66;5006623;28;20033;-72
2023/12/13 08:06:15;;;;;;;9.80;6.03;;;;;;;6.56;100.00;95131.50;5007542;28;20061;-72
2023/12/13 08:08:41;;;;;;;9.60;3.17;;;;;;;6.45;100.00;95123.28;5009743;28;20104;-73
2023/12/13 08:11:07;;;;;;;10.82;3.55;;;;;;;6.32;100.00;95125.50;5007518;28;20498;-71
2023/12/13 08:13:33;;;;;;;20.05;5.63;;;;;;;6.41;100.00;95132.56;5013165;28;20415;-72
2023/12/13 08:15:59;;;;;;;55.15;17.73;;;;;;;6.55;100.00;95137.31;5008986;28;20033;-71
2023/12/13 08:18:25;;;;;;;53.22;18.27;;;;;;;6.75;100.00;95149.47;5011276;28;20279;-72
2023/12/13 08:20:50;;;;;;;19.23;8.13;;;;;;;6.95;100.00;95141.03;5031060;28;20554;-72
2023/12/13 08:23:16;;;;;;;32.72;11.52;;;;;;;7.17;100.00;95141.94;4982838;28;20034;-72
2023/12/13 08:25:41;;;;;;;25.38;8.68;;;;;;;7.37;100.00;95132.28;5013736;28;20045;-73
2023/12/13 08:28:08;;;;;;;13.07;5.47;;;;;;;7.49;100.00;95141.28;5008833;28;20144;-71
2023/12/13 08:30:34;;;;;;;10.25;4.05;;;;;;;7.55;100.00;95145.97;5027735;28;20114;-69
2023/12/13 08:32:59;;;;;;;14.30;6.50;;;;;;;7.29;100.00;95133.41;5021047;28;20030;-68
2023/12/13 08:35:26;;;;;;;16.77;8.55;;;;;;;7.12;100.00;95134.16;5017381;28;20583;-68
2023/12/13 08:37:52;;;;;;;18.25;7.35;;;;;;;7.02;100.00;95141.88;5021925;28;20412;-69
2023/12/13 08:40:18;;;;;;;19.45;8.68;;;;;;;7.00;100.00;95132.53;5016610;28;20041;-69
2023/12/13 08:42:43;;;;;;;21.80;8.52;;;;;;;6.98;100.00;95140.28;5020602;28;20041;-68
2023/12/13 08:45:10;;;;;;;13.15;6.30;;;;;;;7.06;100.00;95137.22;5015402;28;20124;-68
2023/12/13 08:47:36;;;;;;;10.07;5.32;;;;;;;7.06;100.00;95136.47;5020907;28;20187;-68
2023/12/13 08:50:01;;;;;;;9.25;5.47;;;;;;;6.97;100.00;95139.53;5019678;28;20120;-68
2023/12/13 08:52:27;;;;;;;6.50;4.45;;;;;;;7.09;100.00;95143.84;5008664;28;20038;-68
2023/12/13 08:54:52;;;;;;;7.38;4.43;;;;;;;7.11;100.00;95140.75;5019751;28;20041;-68
2023/12/13 08:57:18;;;;;;;5.75;3.08;;;;;;;7.15;100.00;95136.88;5015617;28;20037;-68
2023/12/13 08:59:43;;;;;;;5.68;3.30;;;;;;;7.25;100.00;95129.91;5019768;28;20060;-68
2023/12/13 09:02:08;;;;;;;7.82;3.80;;;;;;;7.31;100.00;95139.28;5014890;28;20726;-67
2023/12/13 09:04:34;;;;;;;5.70;3.63;;;;;;;7.32;100.00;95135.38;5020498;28;20041;-68
2023/12/13 09:06:59;;;;;;;6.00;4.10;;;;;;;7.36;100.00;95132.69;5019581;28;20131;-67
2023/12/13 09:09:24;;;;;;;6.40;3.90;;;;;;;7.41;100.00;95135.03;5015027;28;20045;-67
2023/12/13 09:11:50;;;;;;;7.35;4.82;;;;;;;7.45;100.00;95142.06;5039437;28;20045;-68
2023/12/13 09:14:15;;;;;;;9.30;5.88;;;;;;;7.49;100.00;95138.56;5014533;28;20045;-68
2023/12/13 09:16:40;;;;;;;9.18;4.78;;;;;;;7.51;100.00;95137.03;5018705;28;20049;-67
2023/12/13 09:19:07;;;;;;;6.90;4.55;;;;;;;7.58;100.00;95138.97;5011414;28;20034;-68
2023/12/13 09:21:32;;;;;;;8.45;4.75;;;;;;;7.60;100.00;95137.44;5017816;28;20488;-68
2023/12/13 09:23:57;;;;;;;8.68;4.60;;;;;;;7.67;100.00;95147.56;5017823;28;20128;-69
2023/12/13 09:26:23;;;;;;;11.20;4.70;;;;;;;7.58;100.00;95147.94;5008126;28;20089;-70
2023/12/13 09:28:49;;;;;;;7.22;4.10;;;;;;;7.67;100.00;95144.84;5027345;28;20092;-69
2023/12/13 09:31:14;;;;;;;9.90;6.30;;;;;;;7.72;100.00;95155.34;5024442;28;20044;-68
2023/12/13 09:33:39;;;;;;;14.80;7.82;;;;;;;7.79;100.00;95146.41;5022791;28;20033;-68
2023/12/13 09:36:06;;;;;;;18.70;8.70;;;;;;;7.75;100.00;95151.09;5013476;28;20048;-68
2023/12/13 09:38:32;;;;;;;23.38;11.68;;;;;;;7.70;100.00;95152.22;5019487;28;20037;-69
2023/12/13 09:40:57;;;;;;;15.27;8.93;;;;;;;7.73;100.00;95151.47;5019358;28;20535;-69
2023/12/13 09:43:23;;;;;;;17.77;9.40;;;;;;;7.75;100.00;95159.28;5014561;28;20909;-69
2023/12/13 09:45:51;;;;;;;23.75;10.93;;;;;;;7.77;100.00;95163.16;5018309;28;20201;-69
2023/12/13 09:48:22;;;;;;;61.13;17.02;;;;;;;7.81;100.00;95163.97;5015480;28;20039;-69
2023/12/13 09:50:53;;;;;;;21.48;9.48;;;;;;;7.86;100.00;95170.97;5019529;28;20048;-69
2023/12/13 09:53:20;;;;;;;32.05;11.20;;;;;;;7.89;100.00;95167.47;5014130;28;20033;-69
2023/12/13 09:55:47;;;;;;;13.60;7.65;;;;;;;7.91;100.00;95178.00;5019240;28;20045;-69
2023/12/13 09:58:12;;;;;;;28.50;10.18;;;;;;;7.86;100.00;95173.69;5014257;28;20045;-69
2023/12/13 10:00:38;;;;;;;25.73;9.38;;;;;;;7.81;100.00;95166.69;5022953;28;20053;-69
2023/12/13 10:03:04;;;;;;;16.08;8.02;;;;;;;7.65;100.00;95166.22;5023658;28;20468;-69
2023/12/13 10:05:31;;;;;;;15.88;9.35;;;;;;;7.56;100.00;95166.63;5023697;28;20041;-70
2023/12/13 10:08:01;;;;;;;29.05;12.88;;;;;;;7.68;100.00;95167.44;5023276;28;20040;-70
2023/12/13 10:10:35;;;;;;;31.35;11.30;;;;;;;7.82;100.00;95173.69;5034294;28;20050;-69
2023/12/13 10:13:01;;;;;;;78.07;23.08;;;;;;;7.91;100.00;95167.88;5021298;28;20045;-69
2023/12/13 10:15:31;;;;;;;20.83;7.68;;;;;;;8.06;100.00;95159.72;5019402;28;20092;-69
2023/12/13 10:18:03;;;;;;;7.50;3.83;;;;;;;8.13;100.00;95154.25;5023380;28;20794;-69
2023/12/13 10:20:30;;;;;;;14.70;4.38;;;;;;;7.88;100.00;95160.44;5020605;28;20044;-70
2023/12/13 10:22:56;;;;;;;4.13;2.72;;;;;;;8.02;100.00;95165.16;5022371;28;20049;-69
2023/12/13 10:25:23;;;;;;;5.78;2.60;;;;;;;8.05;100.00;95158.94;5009754;28;20375;-69
2023/12/13 10:27:50;;;;;;;3.88;2.30;;;;;;;8.14;100.00;95159.34;5022217;28;20080;-69
2023/12/13 10:30:17;;;;;;;4.65;2.05;;;;;;;8.13;100.00;95154.25;5017272;28;20053;-69
2023/12/13 10:32:43;;;;;;;3.42;2.25;;;;;;;8.12;100.00;95152.69;5021949;28;20033;-69
2023/12/13 10:35:09;;;;;;;2.55;1.38;;;;;;;8.07;100.00;95148.41;5016223;28;20044;-68
2023/12/13 10:37:35;;;;;;;3.28;1.40;;;;;;;8.14;100.00;95150.34;5021693;28;20045;-68
2023/12/13 10:40:00;;;;;;;3.65;1.30;;;;;;;8.10;100.00;95152.31;5022274;28;20408;-68
2023/12/13 10:42:26;;;;;;;1.90;0.90;;;;;;;8.08;100.00;95139.06;5018117;28;20037;-68
2023/12/13 10:44:53;;;;;;;2.80;1.50;;;;;;;8.14;100.00;95136.72;5021826;28;20045;-68
2023/12/13 10:47:26;;;;;;;2.10;1.08;;;;;;;8.03;100.00;95144.88;5016674;28;20064;-69
2023/12/13 10:49:54;;;;;;;2.92;1.17;;;;;;;8.09;100.00;95131.69;5022213;28;20041;-69
2023/12/13 10:52:21;;;;;;;1.73;1.10;;;;;;;8.01;100.00;95136.31;5014537;28;20578;-69
2023/12/13 10:54:51;;;;;;;1.75;0.90;;;;;;;7.95;100.00;95133.19;5021167;28;20049;-69
2023/12/13 10:57:17;;;;;;;1.98;1.05;;;;;;;7.85;100.00;95136.72;5015039;28;20033;-69
2023/12/13 10:59:44;;;;;;;2.92;0.70;;;;;;;7.69;100.00;95133.53;5021413;28;20091;-69
2023/12/13 11:02:12;;;;;;;1.25;0.88;;;;;;;7.73;100.00;95134.34;5016080;28;20056;-69
2023/12/13 11:04:40;;;;;;;4.32;1.10;;;;;;;7.90;100.00;95124.63;5021629;28;20095;-69
2023/12/13 11:07:06;;;;;;;2.20;1.17;;;;;;;7.98;100.00;95137.88;5017164;28;20262;-69
2023/12/13 11:09:32;;;;;;;3.28;0.85;;;;;;;7.84;100.00;95129.69;5023350;28;20053;-69
2023/12/13 11:12:09;;;;;;;2.13;0.80;;;;;;;7.84;100.00;95127.75;5023041;28;20144;-69
2023/12/13 11:14:35;;;;;;;1.08;0.90;;;;;;;7.79;100.00;95125.38;5020133;28;20107;-69
2023/12/13 11:17:00;;;;;;;1.88;1.15;;;;;;;7.84;100.00;95122.28;5019529;28;20057;-69
2023/12/13 11:19:27;;;;;;;8.05;1.50;;;;;;;7.85;100.00;95120.34;5016600;28;20053;-69
2023/12/13 11:21:55;;;;;;;2.08;1.20;;;;;;;7.97;100.00;95119.97;5021869;28;20029;-69
2023/12/13 11:24:26;;;;;;;2.33;1.10;;;;;;;8.06;100.00;95116.09;5017462;28;20518;-69
2023/12/13 11:26:54;;;;;;;3.15;1.25;;;;;;;8.02;100.00;95114.13;5020625;28;20044;-69